Time;durP1;ratioP1;P1;durP2;ratioP2;P2;SDS_P1;SDS_P2;PMS_P1;PMS_P2;Temp;Humidity;BMP_temperature;BMP_pressure;BME280_temperature;BME280_humidity;BME280_pressure;Samples;Min_cycle;Max_cycle;Signal;HPM_P1;HPM_P2
2022/02/23 00:00:44;;;;;;;1.60;1.50;;;6.60;99.90;;;;;;7381399;19;20321;-66
2022/02/23 00:03:10;;;;;;;2.00;1.80;;;6.60;99.90;;;;;;7374574;19;20332;-66
2022/02/23 00:05:36;;;;;;;1.90;1.57;;;6.60;99.90;;;;;;7377338;19;20325;-66
2022/02/23 00:08:02;;;;;;;1.63;1.50;;;6.60;99.90;;;;;;7377232;19;20315;-66
2022/02/23 00:10:28;;;;;;;2.33;1.67;;;6.60;99.90;;;;;;7380660;19;20951;-66
2022/02/23 00:12:53;;;;;;;1.98;1.60;;;6.60;99.90;;;;;;7377861;19;20308;-66
2022/02/23 00:15:19;;;;;;;2.27;1.67;;;6.60;99.90;;;;;;7380506;19;20333;-68
2022/02/23 00:17:44;;;;;;;1.83;1.50;;;6.60;99.90;;;;;;7381597;19;20356;-66
2022/02/23 00:20:11;;;;;;;2.70;1.70;;;6.60;99.90;;;;;;7378344;19;20308;-66
2022/02/23 00:22:37;;;;;;;2.65;1.50;;;6.60;99.90;;;;;;7378198;19;20416;-66
2022/02/23 00:25:03;;;;;;;3.25;1.88;;;6.70;99.90;;;;;;7379326;19;20656;-66
2022/02/23 00:27:29;;;;;;;2.70;1.60;;;6.70;99.90;;;;;;7357021;19;20317;-67
2022/02/23 00:29:55;;;;;;;1.83;1.63;;;6.70;99.90;;;;;;7380310;19;20335;-67
2022/02/23 00:32:20;;;;;;;2.95;1.83;;;6.70;99.90;;;;;;7376008;19;20871;-67
2022/02/23 00:34:47;;;;;;;3.17;1.42;;;6.70;99.90;;;;;;7338070;19;20324;-67
2022/02/23 00:37:12;;;;;;;1.70;1.20;;;6.60;99.90;;;;;;7380701;19;20918;-66
2022/02/23 00:39:38;;;;;;;1.60;1.37;;;6.60;99.90;;;;;;7376959;19;20317;-67
2022/02/23 00:42:04;;;;;;;1.20;1.10;;;6.60;99.90;;;;;;7378133;19;20320;-66
2022/02/23 00:44:29;;;;;;;1.30;1.20;;;6.60;99.90;;;;;;7377538;19;20395;-66
2022/02/23 00:46:55;;;;;;;1.63;1.30;;;6.60;99.90;;;;;;7367003;19;20936;-67
2022/02/23 00:49:21;;;;;;;2.22;1.25;;;6.60;99.90;;;;;;7377720;19;20410;-66
2022/02/23 00:51:47;;;;;;;2.43;1.23;;;6.50;99.90;;;;;;7380484;19;20346;-66
2022/02/23 00:54:12;;;;;;;1.92;1.33;;;6.50;99.90;;;;;;7374538;19;20761;-67
2022/02/23 00:56:38;;;;;;;1.60;1.50;;;6.50;99.90;;;;;;7380546;19;21194;-66
2022/02/23 00:59:04;;;;;;;4.03;1.60;;;6.40;99.90;;;;;;7365423;19;21208;-66
2022/02/23 01:01:30;;;;;;;3.80;1.80;;;6.40;99.90;;;;;;7377296;19;20319;-65
2022/02/23 01:03:55;;;;;;;3.92;1.58;;;6.30;99.90;;;;;;7372864;19;20383;-66
2022/02/23 01:06:22;;;;;;;3.97;1.63;;;6.30;99.90;;;;;;7375246;19;20959;-66
2022/02/23 01:08:48;;;;;;;2.47;1.80;;;6.20;99.90;;;;;;7378720;19;20325;-66
2022/02/23 01:11:16;;;;;;;3.67;1.75;;;6.20;99.90;;;;;;7376425;19;20413;-66
2022/02/23 01:13:42;;;;;;;3.80;1.75;;;6.20;99.90;;;;;;7373262;19;20670;-66
2022/02/23 01:16:08;;;;;;;3.03;1.73;;;6.30;99.90;;;;;;7375905;19;20336;-66
2022/02/23 01:18:33;;;;;;;2.38;1.70;;;6.20;99.90;;;;;;7339095;19;20893;-66
2022/02/23 01:20:59;;;;;;;2.95;1.50;;;6.10;99.90;;;;;;7378023;19;20723;-68
2022/02/23 01:23:25;;;;;;;3.70;1.90;;;6.10;99.90;;;;;;7376659;19;20324;-67
2022/02/23 01:25:50;;;;;;;4.88;2.15;;;6.10;99.90;;;;;;7377773;19;20332;-67
2022/02/23 01:28:16;;;;;;;5.57;2.27;;;6.20;99.90;;;;;;7378894;19;20325;-67
2022/02/23 01:30:41;;;;;;;4.60;1.70;;;6.20;99.90;;;;;;7376807;19;20615;-66
2022/02/23 01:33:07;;;;;;;2.77;1.77;;;6.20;99.90;;;;;;7373889;19;20333;-67
2022/02/23 01:35:33;;;;;;;2.83;1.90;;;6.20;99.90;;;;;;7377839;19;20320;-69
2022/02/23 01:37:59;;;;;;;5.30;2.13;;;6.20;99.90;;;;;;7377008;19;20308;-67
2022/02/23 01:40:25;;;;;;;5.67;2.43;;;6.10;99.90;;;;;;7378352;19;20309;-67
2022/02/23 01:42:51;;;;;;;4.65;2.42;;;6.20;99.90;;;;;;7375349;19;20390;-67
2022/02/23 01:45:16;;;;;;;3.97;2.30;;;6.10;99.90;;;;;;7377583;19;20391;-67
2022/02/23 01:47:42;;;;;;;4.05;2.28;;;6.10;99.90;;;;;;7375426;19;20717;-67
2022/02/23 01:50:08;;;;;;;4.00;2.07;;;6.10;99.90;;;;;;7376606;19;20341;-66
2022/02/23 01:52:34;;;;;;;5.35;2.25;;;6.10;99.90;;;;;;7349856;19;20324;-67
2022/02/23 01:54:59;;;;;;;5.50;2.10;;;6.10;99.90;;;;;;7376368;19;20318;-67
2022/02/23 01:57:25;;;;;;;5.82;2.55;;;6.20;99.90;;;;;;7377581;19;20320;-67
2022/02/23 01:59:51;;;;;;;4.50;2.13;;;6.10;99.90;;;;;;7374209;19;20312;-68
2022/02/23 02:02:17;;;;;;;4.53;2.15;;;6.10;99.90;;;;;;7372986;19;20435;-66
2022/02/23 02:04:42;;;;;;;5.30;2.50;;;6.20;99.90;;;;;;7375206;19;20327;-67
2022/02/23 02:07:08;;;;;;;6.07;2.40;;;6.20;99.90;;;;;;7376731;19;20308;-67
2022/02/23 02:09:34;;;;;;;4.20;2.60;;;6.10;99.90;;;;;;7375473;19;20332;-67
2022/02/23 02:12:00;;;;;;;4.07;2.30;;;6.20;99.90;;;;;;7351128;19;20376;-67
2022/02/23 02:14:25;;;;;;;6.07;2.67;;;6.20;99.90;;;;;;7370822;19;20341;-67
2022/02/23 02:16:51;;;;;;;5.37;2.20;;;6.20;99.90;;;;;;7376384;19;20317;-67
2022/02/23 02:19:17;;;;;;;6.07;2.55;;;6.20;99.90;;;;;;7373253;19;20332;-68
2022/02/23 02:21:58;;;;;;;2.77;1.97;;;6.10;99.90;;;;;;7375360;19;20517;-67
2022/02/23 02:24:28;;;;;;;3.70;2.22;;;6.10;99.90;;;;;;7259826;19;2004771;-68
2022/02/23 02:26:54;;;;;;;6.05;2.85;;;6.10;99.90;;;;;;7377554;19;20337;-67
2022/02/23 02:29:20;;;;;;;8.02;2.85;;;6.10;99.90;;;;;;7382434;19;20670;-68
2022/02/23 02:31:46;;;;;;;6.90;2.80;;;6.00;99.90;;;;;;7340255;19;20316;-67
2022/02/23 02:34:12;;;;;;;5.60;2.83;;;6.00;99.90;;;;;;7378837;19;20325;-68
2022/02/23 02:36:37;;;;;;;6.78;2.40;;;5.90;99.90;;;;;;7382144;19;20352;-68
2022/02/23 02:39:04;;;;;;;7.20;2.50;;;5.90;99.90;;;;;;7380384;19;20341;-67
2022/02/23 02:41:30;;;;;;;5.95;2.35;;;5.90;99.90;;;;;;7382270;19;20319;-67
2022/02/23 02:43:55;;;;;;;7.57;2.83;;;5.90;99.90;;;;;;7378749;19;20328;-68
2022/02/23 02:46:21;;;;;;;5.20;2.50;;;5.80;99.90;;;;;;7382754;19;20920;-67
2022/02/23 02:48:47;;;;;;;5.85;2.47;;;5.90;99.90;;;;;;7382645;19;20324;-68
2022/02/23 02:51:12;;;;;;;5.87;2.83;;;5.80;99.90;;;;;;7382983;19;20788;-67
2022/02/23 02:53:38;;;;;;;8.32;2.85;;;5.80;99.90;;;;;;7378619;19;20347;-68
2022/02/23 02:56:04;;;;;;;6.23;3.03;;;5.90;99.90;;;;;;7380020;19;20668;-68
2022/02/23 02:58:29;;;;;;;5.18;2.38;;;5.80;99.90;;;;;;7383044;19;20795;-67
2022/02/23 03:00:55;;;;;;;4.10;2.28;;;5.80;99.90;;;;;;7377676;19;20333;-67
2022/02/23 03:03:20;;;;;;;8.63;2.77;;;5.70;99.90;;;;;;7377524;19;20351;-68
2022/02/23 03:05:47;;;;;;;5.45;2.70;;;5.70;99.90;;;;;;7380944;19;20328;-67
2022/02/23 03:08:14;;;;;;;5.15;2.42;;;5.70;99.90;;;;;;7381298;19;20663;-68
2022/02/23 03:10:47;;;;;;;6.40;2.70;;;5.70;99.90;;;;;;7357767;19;20320;-68
2022/02/23 03:13:19;;;;;;;5.60;2.53;;;5.70;99.90;;;;;;7231682;19;2004148;-68
2022/02/23 03:15:46;;;;;;;4.88;2.63;;;5.70;99.90;;;;;;7379928;19;20328;-67
2022/02/23 03:18:12;;;;;;;6.18;2.22;;;5.70;99.90;;;;;;7381651;19;20321;-68
2022/02/23 03:20:37;;;;;;;4.80;2.30;;;5.60;99.90;;;;;;7380885;19;20953;-67
2022/02/23 03:23:03;;;;;;;6.00;2.70;;;5.70;99.90;;;;;;7379400;19;20317;-67
2022/02/23 03:25:29;;;;;;;2.20;1.77;;;5.70;99.90;;;;;;7384466;19;20316;-68
2022/02/23 03:27:54;;;;;;;7.83;2.93;;;5.70;99.90;;;;;;7382509;19;20864;-68
2022/02/23 03:30:20;;;;;;;5.38;2.60;;;5.60;99.90;;;;;;7380142;19;20316;-67
2022/02/23 03:32:46;;;;;;;3.43;2.03;;;5.60;99.90;;;;;;7376720;19;20301;-68
2022/02/23 03:35:11;;;;;;;8.00;2.83;;;5.60;99.90;;;;;;7381403;19;20300;-67
2022/02/23 03:37:37;;;;;;;8.43;2.83;;;5.60;99.90;;;;;;7378864;19;20410;-68
2022/02/23 03:40:03;;;;;;;8.10;2.60;;;5.50;99.90;;;;;;7381826;19;20304;-67
2022/02/23 03:42:29;;;;;;;6.78;2.70;;;5.40;99.90;;;;;;7376945;19;20344;-67
2022/02/23 03:44:55;;;;;;;5.17;2.67;;;5.40;99.90;;;;;;7379772;19;20313;-68
2022/02/23 03:47:20;;;;;;;4.05;2.25;;;5.30;99.90;;;;;;7380875;19;20328;-67
2022/02/23 03:49:46;;;;;;;4.50;2.40;;;5.30;99.90;;;;;;7365425;19;20316;-67
2022/02/23 03:52:12;;;;;;;5.20;2.55;;;5.20;99.90;;;;;;7378692;19;20309;-68
2022/02/23 03:54:37;;;;;;;5.57;2.50;;;5.10;99.90;;;;;;7381744;19;20313;-67
2022/02/23 03:57:03;;;;;;;2.67;2.03;;;5.10;99.90;;;;;;7378937;19;20357;-67
2022/02/23 03:59:29;;;;;;;4.70;2.45;;;5.10;99.90;;;;;;7384010;19;20321;-67
2022/02/23 04:01:55;;;;;;;2.78;2.10;;;5.10;99.90;;;;;;7378409;19;20332;-67
2022/02/23 04:04:21;;;;;;;6.70;2.30;;;5.10;99.90;;;;;;7378972;19;20367;-68
2022/02/23 04:06:47;;;;;;;4.40;2.17;;;5.00;99.90;;;;;;7378974;19;21021;-67
2022/02/23 04:09:13;;;;;;;6.00;2.43;;;5.00;99.90;;;;;;7380464;19;20305;-67
2022/02/23 04:11:39;;;;;;;8.70;2.60;;;5.00;99.90;;;;;;7381127;19;20324;-68
2022/02/23 04:14:05;;;;;;;3.35;2.17;;;4.90;99.90;;;;;;7378234;19;20742;-67
2022/02/23 04:16:34;;;;;;;9.68;2.70;;;4.90;99.90;;;;;;7379657;19;20435;-67
2022/02/23 04:18:59;;;;;;;10.80;2.70;;;4.90;99.90;;;;;;7382838;19;20988;-68
2022/02/23 04:21:25;;;;;;;4.57;2.57;;;4.90;99.90;;;;;;7380324;19;20312;-67
2022/02/23 04:23:51;;;;;;;3.03;2.13;;;5.00;99.90;;;;;;7375261;19;20309;-68
2022/02/23 04:26:17;;;;;;;4.78;2.50;;;5.00;99.90;;;;;;7378077;19;20324;-68
2022/02/23 04:28:43;;;;;;;5.03;2.10;;;4.90;99.90;;;;;;7380899;19;20842;-67
2022/02/23 04:31:09;;;;;;;5.25;2.05;;;4.90;99.90;;;;;;7378316;19;20374;-67
2022/02/23 04:33:35;;;;;;;4.60;2.33;;;4.80;99.90;;;;;;7374058;19;20333;-67
2022/02/23 04:36:03;;;;;;;4.07;2.28;;;4.80;99.90;;;;;;7378031;19;20341;-67
2022/02/23 04:38:29;;;;;;;5.75;2.30;;;4.80;99.90;;;;;;7379481;19;20320;-68
2022/02/23 04:40:54;;;;;;;4.67;2.50;;;4.70;99.90;;;;;;7377898;19;20330;-67
2022/02/23 04:43:20;;;;;;;4.53;2.35;;;4.70;99.90;;;;;;7375696;19;20325;-67
2022/02/23 04:45:46;;;;;;;4.90;2.40;;;4.70;99.90;;;;;;7378271;19;20386;-67
2022/02/23 04:48:11;;;;;;;6.45;2.15;;;4.80;99.90;;;;;;7364311;19;20335;-67
2022/02/23 04:50:37;;;;;;;4.10;2.17;;;4.80;99.90;;;;;;7372875;19;20317;-69
2022/02/23 04:53:03;;;;;;;5.30;2.40;;;4.80;99.90;;;;;;7374282;19;21018;-69
2022/02/23 04:55:28;;;;;;;3.23;2.10;;;4.80;99.90;;;;;;7377259;19;20308;-68
2022/02/23 04:57:54;;;;;;;2.78;2.17;;;4.80;99.90;;;;;;7379092;19;20394;-68
2022/02/23 05:00:19;;;;;;;4.47;2.15;;;4.80;99.90;;;;;;7381287;19;20303;-69
2022/02/23 05:02:45;;;;;;;6.00;2.50;;;4.90;99.90;;;;;;7335379;19;20434;-69
2022/02/23 05:05:11;;;;;;;7.00;2.47;;;4.80;99.90;;;;;;7379934;19;20308;-69
2022/02/23 05:07:36;;;;;;;5.33;2.40;;;4.80;99.90;;;;;;7379763;19;20383;-68
2022/02/23 05:10:03;;;;;;;6.78;2.70;;;4.90;99.90;;;;;;7379331;19;20335;-68
2022/02/23 05:12:30;;;;;;;5.45;2.60;;;4.90;99.90;;;;;;7378347;19;20312;-68
2022/02/23 05:14:58;;;;;;;4.72;2.50;;;5.00;99.90;;;;;;7379447;19;20320;-69
2022/02/23 05:17:24;;;;;;;11.20;2.95;;;5.10;99.90;;;;;;7378484;19;20870;-69
2022/02/23 05:19:50;;;;;;;5.00;2.50;;;5.10;99.90;;;;;;7378597;19;20324;-69
2022/02/23 05:22:16;;;;;;;4.82;2.30;;;5.10;99.90;;;;;;7377134;19;21289;-69
2022/02/23 05:24:42;;;;;;;7.18;2.42;;;5.10;99.90;;;;;;7379909;19;20320;-68
2022/02/23 05:27:07;;;;;;;3.97;2.30;;;5.10;99.90;;;;;;7380201;19;20296;-69
2022/02/23 05:29:33;;;;;;;7.93;2.60;;;5.20;99.90;;;;;;7377744;19;20384;-69
2022/02/23 05:31:59;;;;;;;5.57;2.20;;;5.20;99.90;;;;;;7376107;19;20384;-69
2022/02/23 05:34:25;;;;;;;6.05;2.33;;;5.30;99.90;;;;;;7365020;19;20320;-69
2022/02/23 05:36:50;;;;;;;6.20;2.67;;;5.30;99.90;;;;;;7379243;19;20380;-69
2022/02/23 05:39:16;;;;;;;6.25;2.63;;;5.40;99.90;;;;;;7378625;19;20857;-69
2022/02/23 05:41:42;;;;;;;7.40;2.97;;;5.30;99.90;;;;;;7378402;19;20313;-69
2022/02/23 05:44:07;;;;;;;5.57;2.33;;;5.30;99.90;;;;;;7375418;19;20317;-69
2022/02/23 05:46:33;;;;;;;3.70;2.38;;;5.30;99.90;;;;;;7377499;19;20308;-69
2022/02/23 05:48:59;;;;;;;4.97;2.30;;;5.30;99.90;;;;;;7377511;19;20654;-69
2022/02/23 05:51:28;;;;;;;2.42;2.00;;;5.30;99.90;;;;;;7377848;19;20304;-69
2022/02/23 05:53:54;;;;;;;6.93;2.88;;;5.30;99.90;;;;;;7376372;19;20325;-69
2022/02/23 05:56:19;;;;;;;6.53;2.67;;;5.20;99.90;;;;;;7375649;19;20324;-69
2022/02/23 05:58:45;;;;;;;4.83;2.60;;;5.20;99.90;;;;;;7379191;19;20313;-69
2022/02/23 06:01:11;;;;;;;3.97;2.35;;;5.10;99.90;;;;;;7377500;19;20324;-69
2022/02/23 06:03:37;;;;;;;6.70;2.35;;;5.10;99.90;;;;;;7372934;19;20383;-69
2022/02/23 06:06:03;;;;;;;5.43;2.73;;;5.10;99.90;;;;;;7379323;19;20313;-70
2022/02/23 06:08:28;;;;;;;7.20;2.70;;;5.00;99.90;;;;;;7381081;19;20328;-69
2022/02/23 06:10:54;;;;;;;5.13;2.75;;;5.00;99.90;;;;;;7376516;19;20331;-70
2022/02/23 06:13:20;;;;;;;4.10;2.40;;;5.00;99.90;;;;;;7376700;19;20855;-69
2022/02/23 06:15:45;;;;;;;3.45;2.47;;;5.00;99.90;;;;;;7376830;19;20341;-69
2022/02/23 06:18:12;;;;;;;4.13;2.22;;;4.90;99.90;;;;;;7376247;19;20315;-70
2022/02/23 06:20:37;;;;;;;4.63;2.30;;;4.90;99.90;;;;;;7376628;19;20707;-69
2022/02/23 06:23:03;;;;;;;6.37;3.00;;;4.90;99.90;;;;;;7375177;19;20317;-69
2022/02/23 06:25:29;;;;;;;3.30;2.43;;;4.90;99.90;;;;;;7377254;19;20304;-70
2022/02/23 06:27:54;;;;;;;4.25;2.20;;;4.90;99.90;;;;;;7379737;19;21566;-69
2022/02/23 06:30:20;;;;;;;6.30;2.50;;;4.80;99.90;;;;;;7379372;19;21295;-69
2022/02/23 06:32:46;;;;;;;5.93;2.40;;;4.80;99.90;;;;;;7375156;19;20312;-69
2022/02/23 06:35:11;;;;;;;3.80;2.40;;;4.90;99.90;;;;;;7377475;19;20397;-69
2022/02/23 06:37:38;;;;;;;6.25;2.75;;;4.90;99.90;;;;;;7378531;19;20419;-70
2022/02/23 06:40:04;;;;;;;6.80;3.08;;;4.90;99.90;;;;;;7379213;19;20352;-70
2022/02/23 06:42:30;;;;;;;7.80;2.57;;;4.90;99.90;;;;;;7375496;19;20378;-69
2022/02/23 06:44:56;;;;;;;6.97;2.60;;;4.90;99.90;;;;;;7376615;19;20836;-70
2022/02/23 06:47:22;;;;;;;5.80;2.63;;;5.00;99.90;;;;;;7377028;19;20304;-69
2022/02/23 06:49:47;;;;;;;2.72;2.20;;;5.10;99.90;;;;;;7377579;19;20868;-69
2022/02/23 06:52:14;;;;;;;4.10;2.60;;;5.20;99.90;;;;;;7376696;19;20380;-69
2022/02/23 06:54:40;;;;;;;7.90;2.72;;;5.20;99.90;;;;;;7378435;19;20407;-69
2022/02/23 06:57:08;;;;;;;3.88;2.17;;;5.20;99.90;;;;;;7378310;19;20753;-70
2022/02/23 06:59:34;;;;;;;4.47;3.03;;;5.20;99.90;;;;;;7357793;19;20321;-69
2022/02/23 07:02:00;;;;;;;5.18;2.78;;;5.20;99.90;;;;;;7374613;19;20864;-69
2022/02/23 07:04:26;;;;;;;4.63;2.63;;;5.10;99.90;;;;;;7374410;19;20315;-69
2022/02/23 07:06:51;;;;;;;6.30;2.90;;;5.10;99.90;;;;;;7373526;19;20316;-69
2022/02/23 07:09:17;;;;;;;8.73;2.70;;;5.00;99.90;;;;;;7376704;19;20823;-70
2022/02/23 07:11:43;;;;;;;6.55;3.45;;;5.00;99.90;;;;;;7373137;19;20316;-69
2022/02/23 07:14:09;;;;;;;10.20;3.23;;;5.10;99.90;;;;;;7373705;19;20335;-69
2022/02/23 07:16:35;;;;;;;6.05;3.13;;;5.10;99.90;;;;;;7383134;19;20484;-70
2022/02/23 07:19:01;;;;;;;4.55;2.53;;;5.20;99.90;;;;;;7382608;19;21218;-69
2022/02/23 07:21:26;;;;;;;10.85;2.75;;;5.30;99.90;;;;;;7382946;19;20327;-69
2022/02/23 07:23:52;;;;;;;5.50;2.80;;;5.30;99.90;;;;;;7378968;19;20320;-69
2022/02/23 07:26:18;;;;;;;3.37;2.53;;;5.40;99.90;;;;;;7385380;19;20321;-69
2022/02/23 07:28:47;;;;;;;5.80;2.92;;;5.40;99.90;;;;;;7381687;19;20407;-69
2022/02/23 07:31:13;;;;;;;3.90;2.47;;;5.40;99.90;;;;;;7381960;19;20863;-69
2022/02/23 07:33:40;;;;;;;4.50;2.55;;;5.50;99.90;;;;;;7379410;19;20671;-69
2022/02/23 07:36:06;;;;;;;6.63;3.20;;;5.60;99.90;;;;;;7380972;19;20329;-69
2022/02/23 07:38:32;;;;;;;7.78;2.50;;;5.70;99.90;;;;;;7381668;19;20323;-69
2022/02/23 07:40:58;;;;;;;3.78;2.70;;;5.80;99.90;;;;;;7381724;19;20372;-69
2022/02/23 07:43:23;;;;;;;7.60;2.90;;;5.80;99.90;;;;;;7377049;19;20384;-70
2022/02/23 07:45:53;;;;;;;4.13;2.57;;;6.00;99.90;;;;;;7379870;19;20747;-69
2022/02/23 07:48:19;;;;;;;6.20;2.80;;;6.00;99.90;;;;;;7379539;19;20368;-69
2022/02/23 07:50:44;;;;;;;4.70;2.47;;;6.00;99.90;;;;;;7381156;19;20972;-69
2022/02/23 07:53:10;;;;;;;5.53;2.67;;;6.10;99.90;;;;;;7378117;19;20399;-69
2022/02/23 07:55:37;;;;;;;5.15;2.78;;;6.10;99.90;;;;;;7381629;19;20840;-69
2022/02/23 07:58:04;;;;;;;4.50;2.47;;;6.10;99.90;;;;;;7379024;19;20624;-69
2022/02/23 08:00:30;;;;;;;9.98;2.78;;;6.10;99.90;;;;;;7380722;19;20336;-69
2022/02/23 08:02:56;;;;;;;6.07;2.85;;;6.10;99.90;;;;;;7377251;19;20759;-69
2022/02/23 08:05:24;;;;;;;4.93;2.80;;;6.10;99.90;;;;;;7378444;19;20317;-69
2022/02/23 08:07:50;;;;;;;4.55;2.70;;;6.10;99.90;;;;;;7381164;19;20674;-69
2022/02/23 08:10:16;;;;;;;7.38;2.60;;;6.20;99.90;;;;;;7381372;19;20333;-69
2022/02/23 08:12:42;;;;;;;7.10;2.67;;;6.30;99.90;;;;;;7376972;19;20316;-69
2022/02/23 08:20:38;;;;;;;2.60;2.10;;;6.50;99.90;;;;;;7381664;19;20907;-69
2022/02/23 08:23:04;;;;;;;7.15;2.38;;;6.50;99.90;;;;;;7376978;19;20321;-69
2022/02/23 08:25:30;;;;;;;4.07;2.40;;;6.50;99.90;;;;;;7377302;19;20323;-69
2022/02/23 08:27:56;;;;;;;3.60;2.33;;;6.40;99.90;;;;;;7379826;19;20333;-69
2022/02/23 08:30:21;;;;;;;7.70;2.38;;;6.40;99.90;;;;;;7381985;19;20321;-69
2022/02/23 08:32:48;;;;;;;5.68;2.47;;;6.50;99.90;;;;;;7375916;19;20324;-69
2022/02/23 08:35:14;;;;;;;8.35;2.67;;;6.50;99.90;;;;;;7381011;19;20657;-69
2022/02/23 08:37:40;;;;;;;4.07;2.50;;;6.50;99.90;;;;;;7380045;19;20320;-69
2022/02/23 08:40:06;;;;;;;3.75;2.28;;;6.60;99.90;;;;;;7380940;19;20312;-68
2022/02/23 08:42:32;;;;;;;6.63;2.42;;;6.60;99.90;;;;;;7377155;19;20439;-68
2022/02/23 08:44:58;;;;;;;4.23;2.10;;;6.70;99.90;;;;;;7380259;19;20340;-68
2022/02/23 08:47:25;;;;;;;7.60;2.97;;;6.70;99.90;;;;;;7378624;19;20325;-65
2022/02/23 08:49:54;;;;;;;3.80;2.40;;;6.80;99.90;;;;;;7379257;19;20312;-67
2022/02/23 08:52:20;;;;;;;5.50;2.67;;;6.90;99.90;;;;;;7373790;19;20333;-66
2022/02/23 08:54:46;;;;;;;10.23;2.80;;;6.90;99.90;;;;;;7379471;19;20316;-67
2022/02/23 08:57:11;;;;;;;6.47;2.95;;;6.80;99.90;;;;;;7377261;19;21230;-67
2022/02/23 08:59:37;;;;;;;6.07;2.58;;;6.80;99.90;;;;;;7375895;19;20914;-66
2022/02/23 09:02:03;;;;;;;5.93;2.10;;;6.80;99.90;;;;;;7375860;19;20316;-66
2022/02/23 09:04:29;;;;;;;5.50;2.60;;;6.90;99.90;;;;;;7380566;19;20445;-66
2022/02/23 09:06:54;;;;;;;4.43;2.40;;;6.90;99.90;;;;;;7379557;19;20862;-66
2022/02/23 09:09:20;;;;;;;3.83;2.10;;;6.90;99.90;;;;;;7379423;19;20305;-66
2022/02/23 09:11:47;;;;;;;3.20;2.20;;;7.00;99.90;;;;;;7381358;19;20393;-65
2022/02/23 09:14:14;;;;;;;2.73;2.13;;;7.00;99.90;;;;;;7371007;19;20328;-66
2022/02/23 09:16:39;;;;;;;4.13;2.30;;;7.00;99.90;;;;;;7379180;19;20308;-67
2022/02/23 09:19:05;;;;;;;4.80;2.47;;;7.10;99.90;;;;;;7380578;19;20966;-66
2022/02/23 09:21:31;;;;;;;2.95;2.20;;;7.20;99.90;;;;;;7380020;19;20320;-66
2022/02/23 09:23:59;;;;;;;6.28;3.08;;;7.20;99.90;;;;;;7374029;19;20319;-66
2022/02/23 09:26:25;;;;;;;7.68;2.65;;;7.20;99.90;;;;;;7378887;19;20374;-66
2022/02/23 09:28:50;;;;;;;4.18;2.10;;;7.20;99.90;;;;;;7377897;19;20690;-66
2022/02/23 09:31:17;;;;;;;3.97;2.00;;;7.20;99.90;;;;;;7378455;19;20376;-66
2022/02/23 09:33:43;;;;;;;4.32;2.35;;;7.20;99.90;;;;;;7374233;19;20839;-65
2022/02/23 16:42:30;;;;;;;2.95;2.45;;;7.30;99.90;;;;;;7351361;19;24807;-68
2022/02/23 16:44:55;;;;;;;2.10;1.70;;;7.70;99.90;;;;;;7369714;19;20325;-66
2022/02/23 16:47:21;;;;;;;3.80;1.87;;;7.70;99.90;;;;;;7371300;19;20320;-68
2022/02/23 16:49:47;;;;;;;1.80;1.50;;;7.60;99.90;;;;;;7360835;19;20332;-69
2022/02/23 16:52:12;;;;;;;3.67;1.70;;;7.60;99.90;;;;;;7375448;19;20313;-68
2022/02/23 16:54:38;;;;;;;2.75;1.90;;;7.50;99.90;;;;;;7375058;19;20320;-68
2022/02/23 16:57:04;;;;;;;2.07;1.70;;;7.40;99.90;;;;;;7378678;19;20714;-67
2022/02/23 16:59:30;;;;;;;2.08;1.73;;;7.30;99.90;;;;;;7378444;19;20389;-68
2022/02/23 17:01:56;;;;;;;2.58;1.60;;;7.20;99.90;;;;;;7372503;19;20317;-67
2022/02/23 17:04:22;;;;;;;1.80;1.55;;;7.20;99.90;;;;;;7376954;19;20867;-69
2022/02/23 17:06:48;;;;;;;2.67;1.75;;;7.10;99.90;;;;;;7374792;19;20312;-68
2022/02/23 17:09:14;;;;;;;4.03;2.33;;;7.00;99.90;;;;;;7377032;19;20355;-67
2022/02/23 17:11:41;;;;;;;21.38;11.50;;;7.00;99.90;;;;;;7376377;19;20305;-68
2022/02/23 17:14:08;;;;;;;3.22;2.92;;;7.00;99.90;;;;;;7372915;19;20684;-69
2022/02/23 17:16:33;;;;;;;4.82;2.88;;;6.90;99.90;;;;;;7374897;19;20666;-67
2022/02/23 17:18:59;;;;;;;4.90;3.53;;;6.90;99.90;;;;;;7377398;19;20329;-67
2022/02/23 17:21:24;;;;;;;4.87;3.10;;;6.80;99.90;;;;;;7376824;19;20345;-68
2022/02/23 17:23:50;;;;;;;4.43;2.42;;;6.70;99.90;;;;;;7377968;19;20362;-67
2022/02/23 17:26:16;;;;;;;2.58;2.35;;;6.60;99.90;;;;;;7373923;19;20990;-67
2022/02/23 17:28:42;;;;;;;4.07;2.73;;;6.50;99.90;;;;;;7375210;19;20342;-68
2022/02/23 17:31:08;;;;;;;3.07;2.60;;;6.40;99.90;;;;;;7376886;19;20308;-68
2022/02/23 17:33:36;;;;;;;2.55;2.28;;;6.30;99.90;;;;;;7372401;19;20327;-67
2022/02/23 17:36:06;;;;;;;3.00;2.35;;;6.20;99.90;;;;;;7375722;19;20406;-68
2022/02/23 17:38:32;;;;;;;4.68;3.83;;;6.20;99.90;;;;;;7378651;19;20354;-68
2022/02/23 17:40:58;;;;;;;7.20;5.05;;;6.20;99.90;;;;;;7377091;19;20315;-67
2022/02/23 17:43:25;;;;;;;7.63;4.10;;;6.10;99.90;;;;;;7373267;19;20321;-67
2022/02/23 17:45:53;;;;;;;5.43;2.57;;;6.00;99.90;;;;;;7375959;19;20881;-68
2022/02/23 17:48:20;;;;;;;5.35;3.05;;;5.90;99.90;;;;;;7373605;19;20353;-68
2022/02/23 17:50:46;;;;;;;2.67;2.40;;;5.90;99.90;;;;;;7375322;19;20305;-67
2022/02/23 17:53:12;;;;;;;5.47;3.30;;;5.80;99.90;;;;;;7373821;19;20316;-69
2022/02/23 17:55:38;;;;;;;3.50;2.40;;;5.80;99.90;;;;;;7374267;19;20416;-68
2022/02/23 17:58:04;;;;;;;2.25;1.67;;;5.70;99.90;;;;;;7373511;19;21196;-67
2022/02/23 18:00:31;;;;;;;2.20;2.00;;;5.50;99.90;;;;;;7376913;19;20313;-69
2022/02/23 18:02:56;;;;;;;3.35;2.97;;;5.40;99.90;;;;;;7370683;19;20317;-68
2022/02/23 18:05:22;;;;;;;3.05;2.53;;;5.30;99.90;;;;;;7373304;19;20296;-69
2022/02/23 18:07:48;;;;;;;3.65;1.88;;;5.30;99.90;;;;;;7373120;19;20325;-68
2022/02/23 18:10:14;;;;;;;2.17;1.97;;;5.30;99.90;;;;;;7375818;19;20330;-68
2022/02/23 18:12:41;;;;;;;2.95;2.00;;;5.20;99.90;;;;;;7373240;19;20349;-69
2022/02/23 18:15:09;;;;;;;2.97;2.50;;;5.20;99.90;;;;;;7369256;19;20301;-68
2022/02/23 18:17:35;;;;;;;5.70;2.78;;;5.20;99.90;;;;;;7373878;19;20332;-68
2022/02/23 18:20:04;;;;;;;10.57;7.87;;;5.10;99.90;;;;;;7374861;19;20853;-68
2022/02/23 18:22:30;;;;;;;3.88;3.10;;;5.00;99.90;;;;;;7371962;19;20312;-68
2022/02/23 18:24:56;;;;;;;2.95;2.25;;;5.00;99.90;;;;;;7370107;19;20312;-68
2022/02/23 18:27:22;;;;;;;4.05;2.50;;;4.90;99.90;;;;;;7378285;19;20324;-68
2022/02/23 18:29:48;;;;;;;2.45;2.22;;;4.80;99.90;;;;;;7374185;19;20382;-68
2022/02/23 18:32:16;;;;;;;4.38;2.50;;;4.70;99.90;;;;;;7371819;19;20315;-67
2022/02/23 18:34:45;;;;;;;6.07;2.53;;;4.70;99.90;;;;;;7353242;19;20311;-67
2022/02/23 18:37:17;;;;;;;2.55;2.10;;;4.70;99.90;;;;;;7374644;19;20371;-68
2022/02/23 18:39:44;;;;;;;2.25;2.05;;;4.60;99.90;;;;;;7375559;19;20919;-68
2022/02/23 18:42:10;;;;;;;3.78;2.50;;;4.60;99.90;;;;;;7370594;19;20327;-69
2022/02/23 18:44:37;;;;;;;2.70;2.03;;;4.50;99.90;;;;;;7372271;19;20332;-67
2022/02/23 18:47:04;;;;;;;2.60;2.22;;;4.50;99.90;;;;;;7373499;19;20342;-68
2022/02/23 18:49:31;;;;;;;2.33;2.00;;;4.40;99.90;;;;;;7374243;19;20879;-68
2022/02/23 18:52:00;;;;;;;4.53;2.00;;;4.40;99.90;;;;;;7375796;19;20879;-67
2022/02/23 18:54:26;;;;;;;3.45;2.92;;;4.30;99.90;;;;;;7371209;19;20316;-68
2022/02/23 18:56:52;;;;;;;5.45;3.35;;;4.30;99.90;;;;;;7352300;19;20317;-68
2022/02/23 18:59:19;;;;;;;3.47;2.60;;;4.20;99.90;;;;;;7375787;19;20300;-68
2022/02/23 19:01:45;;;;;;;4.65;3.30;;;4.20;99.90;;;;;;7371403;19;20313;-68
2022/02/23 19:04:11;;;;;;;5.68;3.42;;;4.20;99.90;;;;;;7373763;19;20312;-68
2022/02/23 19:06:37;;;;;;;2.67;2.47;;;4.10;99.90;;;;;;7373674;19;20323;-68
2022/02/23 19:09:05;;;;;;;2.33;2.13;;;4.00;99.90;;;;;;7375276;19;20566;-68
2022/02/23 19:11:30;;;;;;;3.65;2.13;;;4.00;99.90;;;;;;7379119;19;20308;-67
2022/02/23 19:13:56;;;;;;;2.77;2.20;;;4.00;99.90;;;;;;7380539;19;20331;-68
2022/02/23 19:16:22;;;;;;;4.97;2.50;;;3.90;99.90;;;;;;7379882;19;20422;-69
2022/02/23 19:18:48;;;;;;;3.40;2.47;;;3.80;99.90;;;;;;7380892;19;20304;-68
2022/02/23 19:21:14;;;;;;;2.30;2.10;;;3.70;99.90;;;;;;7378897;19;20657;-68
2022/02/23 19:23:40;;;;;;;4.20;2.35;;;3.70;99.90;;;;;;7354302;19;20328;-67
2022/02/23 19:26:06;;;;;;;3.03;2.47;;;3.70;99.90;;;;;;7378846;19;20380;-68
2022/02/23 19:28:31;;;;;;;2.73;1.97;;;3.60;99.90;;;;;;7379268;19;20554;-68
2022/02/23 19:30:58;;;;;;;2.97;2.33;;;3.60;99.90;;;;;;7381025;19;20323;-68
2022/02/23 19:33:24;;;;;;;3.45;2.33;;;3.50;99.90;;;;;;7378405;19;20387;-68
2022/02/23 19:35:50;;;;;;;2.63;2.15;;;3.50;99.90;;;;;;7380008;19;20899;-65
2022/02/23 19:38:16;;;;;;;2.70;2.23;;;3.40;99.90;;;;;;7380640;19;20317;-65
2022/02/23 19:40:42;;;;;;;3.90;2.30;;;3.50;99.90;;;;;;7379132;19;20383;-65
2022/02/23 19:43:08;;;;;;;2.92;2.53;;;3.40;99.90;;;;;;7375391;19;20313;-65
2022/02/23 19:45:34;;;;;;;3.17;2.20;;;3.40;99.90;;;;;;7380106;19;20308;-65
2022/02/23 19:48:00;;;;;;;3.92;2.45;;;3.40;99.90;;;;;;7377653;19;20331;-65
2022/02/23 19:50:26;;;;;;;6.53;2.60;;;3.40;99.90;;;;;;7382970;19;20316;-65
2022/02/23 19:52:51;;;;;;;6.18;3.08;;;3.30;99.90;;;;;;7377679;19;20305;-65
2022/02/23 19:55:17;;;;;;;4.53;2.80;;;3.30;99.90;;;;;;7378346;19;20898;-65
2022/02/23 19:57:43;;;;;;;4.65;3.22;;;3.30;99.90;;;;;;7382190;19;20312;-65
2022/02/23 20:00:14;;;;;;;5.43;3.67;;;3.20;99.90;;;;;;7379119;19;21002;-65
2022/02/23 20:02:41;;;;;;;3.95;3.00;;;3.10;99.90;;;;;;7373982;19;20673;-65